Arnsberg, Germany

9:10 PM CEST on August 23, 2014 (GMT +0200)
INORDRHE108 | Change Station
CLOSE
Current Station
Personal Weather Station
Location: Neheim, NORDRHEIN-WESTFALEN
Elevation: 728 ft
Nearby Weather Stations

Elev 728 ft 51.45 °N, 7.99 °E | Updated 10 seconds ago

Scattered Clouds
Scattered Clouds
53.6 °F
Feels Like 53.6 °F
N
0.0
Wind Variable Wind from SSE
Gusts 0.0 mph

Today
High -- | Low -- °F
--% Chance of Precip.
Yesterday
High -- | Low -- °F
Precip. -- in
6:26 AM 8:34 PM
Waning Crescent, 3% visible
Pressure 29.95 in
Visibility 6.2 miles
Clouds Scattered Clouds 3200 ft
Dew Point 45 °F
Humidity 72%
Rainfall 0.03 in
Snow Depth Not available.
UV 0 out of 12
Pollen Not available.
Air Quality Not available.
Flu Activity Not available.
METAR EDLW 231850Z 24005KT 9999 SCT032 12/08 Q1014 RMK ATIS F

More Conditions Fewer Conditions

Pressure 29.95 in
Visibility 6.2 miles
Clouds Scattered Clouds 3200 ft
Dew Point 45 °F
Humidity 72%
Rainfall 0.03 in
Snow Depth Not available.
UV 0 out of 12
Pollen Not available.
Air Quality Not available.
Flu Activity Not available.
METAR EDLW 231850Z 24005KT 9999 SCT032 12/08 Q1014 RMK ATIS F

More Conditions Fewer Conditions

10-Day Weather Forecast

Almanac

Astronomy

Aug. 23, 2014 Rise Set
Actual Time 6:26 AM CEST 8:34 PM CEST
Civil Twilight 5:50 AM CEST 9:10 PM CEST
Nautical Twilight 5:04 AM CEST 9:55 PM CEST
Astronomical Twilight 4:12 AM CEST 10:47 PM CEST
Moon 4:22 AM CEST 7:12 PM CEST
Length of Visible Light 15h 20m
Length of Day
14h 08m
Tomorrow will be 3m 42s shorter.
Waning Crescent, 3% of the Moon is Illuminated
Today
Waning Crescent
Aug 25
New
Sep 2
First Quarter
Sep 8
Full
Sep 15
Last Quarter

Today's Extremes

Country Highs Country Lows

Community

WunderPhotos

Upload Photos

1,746,585 photos uploaded!

WunderBlogs® & News

Nearby

Snow Depth

Not available.

Earthquake Activity

City Distance Mag. Time & Date
No recent earthquake activity has been reported nearby.
Minimum magnitude displayed is 2.5.

Coastal Water Temperatures

Place Temperature
No Stations Reporting

Nearby Weather Stations